createdAt,value
2022-11-27T00:00:48.917Z,18.67
2022-11-27T00:03:16.769Z,20.47
2022-11-27T00:05:53.281Z,18.53
2022-11-27T00:08:21.028Z,21.37
2022-11-27T00:10:48.749Z,25.30
2022-11-27T00:13:17.948Z,22.53
2022-11-27T00:15:45.753Z,29.87
2022-11-27T00:18:13.519Z,27.13
2022-11-27T00:20:41.240Z,18.83
2022-11-27T00:23:08.953Z,28.07
2022-11-27T00:25:36.661Z,27.97
2022-11-27T00:28:04.494Z,23.93
2022-11-27T00:30:33.541Z,26.30
2022-11-27T00:33:01.222Z,22.80
2022-11-27T00:35:28.913Z,20.17
2022-11-27T00:37:56.589Z,24.97
2022-11-27T00:40:24.305Z,29.00
2022-11-27T00:42:52.001Z,24.77
2022-11-27T00:45:19.728Z,25.67
2022-11-27T00:47:48.771Z,22.70
2022-11-27T00:50:17.130Z,25.23
2022-11-27T00:52:44.893Z,28.13
2022-11-27T00:55:13.721Z,26.07
2022-11-27T00:57:41.456Z,23.83
2022-11-27T01:00:10.422Z,22.43
2022-11-27T01:02:38.314Z,23.43
2022-11-27T01:05:08.622Z,35.93
2022-11-27T01:07:36.478Z,35.20
2022-11-27T01:10:04.465Z,25.67
2022-11-27T01:12:32.234Z,24.80
2022-11-27T01:14:59.942Z,23.90
2022-11-27T01:17:27.660Z,24.60
2022-11-27T01:19:55.362Z,26.00
2022-11-27T01:22:24.441Z,19.30
2022-11-27T01:24:52.179Z,22.50
2022-11-27T01:27:19.894Z,22.07
2022-11-27T01:29:47.581Z,23.00
2022-11-27T01:32:15.299Z,22.87
2022-11-27T01:34:43.192Z,26.90
2022-11-27T01:37:10.932Z,20.00
2022-11-27T01:39:40.048Z,23.13
2022-11-27T01:42:07.829Z,23.40
2022-11-27T01:44:59.579Z,24.93
2022-11-27T01:47:38.845Z,18.97
2022-11-27T01:50:16.621Z,16.57
2022-11-27T01:52:50.120Z,19.90
2022-11-27T01:55:25.059Z,16.97
2022-11-27T01:57:57.284Z,20.53
2022-11-27T02:00:26.108Z,16.90
2022-11-27T02:02:54.084Z,22.43
2022-11-27T02:05:23.898Z,15.27
2022-11-27T02:07:53.211Z,12.33
2022-11-27T02:10:23.892Z,21.20
2022-11-27T02:13:00.129Z,15.03
2022-11-27T02:15:35.894Z,40.17
2022-11-27T02:18:11.124Z,15.77
2022-11-27T02:20:49.646Z,16.27
2022-11-27T02:23:38.877Z,21.53
2022-11-27T02:26:25.870Z,16.03
2022-11-27T02:29:03.101Z,13.90
2022-11-27T02:31:39.601Z,17.20
2022-11-27T02:34:14.495Z,17.53
2022-11-27T02:37:00.644Z,19.77
2022-11-27T02:39:34.491Z,18.80
2022-11-27T02:42:09.640Z,19.80
2022-11-27T02:44:45.397Z,14.00
2022-11-27T02:47:14.621Z,15.77
2022-11-27T02:49:45.109Z,42.70
2022-11-27T02:52:16.502Z,28.33
2022-11-27T02:54:46.403Z,25.10
2022-11-27T02:57:14.939Z,20.53
2022-11-27T02:59:45.857Z,13.77
2022-11-27T03:02:19.884Z,14.17
2022-11-27T03:04:51.412Z,17.53
2022-11-27T03:07:24.099Z,17.80
2022-11-27T03:09:54.798Z,22.57
2022-11-27T03:12:22.573Z,12.43
2022-11-27T03:14:51.674Z,15.10
2022-11-27T03:17:29.629Z,15.33
2022-11-27T03:20:01.886Z,21.13
2022-11-27T03:22:31.629Z,17.30
2022-11-27T03:25:00.381Z,16.90
2022-11-27T03:27:32.672Z,19.17
2022-11-27T03:30:04.510Z,18.40
2022-11-27T03:32:33.170Z,17.10
2022-11-27T03:35:01.567Z,18.73
2022-11-27T03:37:29.465Z,20.57
2022-11-27T03:39:57.488Z,17.00
2022-11-27T03:42:31.240Z,20.50
2022-11-27T03:45:08.932Z,22.60
2022-11-27T03:47:47.009Z,19.53
2022-11-27T03:50:23.873Z,21.60
2022-11-27T03:52:59.556Z,23.77
2022-11-27T03:55:32.923Z,20.93
2022-11-27T03:58:04.118Z,18.77
2022-11-27T04:00:39.591Z,19.30
2022-11-27T04:03:10.485Z,19.80
2022-11-27T04:05:38.849Z,17.50
2022-11-27T04:08:07.297Z,20.67
2022-11-27T04:10:35.104Z,21.80
2022-11-27T04:13:02.845Z,19.20
2022-11-27T04:15:30.564Z,25.20
2022-11-27T04:17:59.600Z,18.43
2022-11-27T04:20:27.331Z,17.07
2022-11-27T04:22:55.048Z,15.40
2022-11-27T04:25:22.943Z,19.43
2022-11-27T04:27:50.974Z,19.10
2022-11-27T04:30:19.434Z,19.77
2022-11-27T04:32:47.309Z,22.97
2022-11-27T04:35:16.478Z,22.17
2022-11-27T04:37:44.228Z,22.43
2022-11-27T04:40:13.005Z,19.50
2022-11-27T04:42:40.798Z,20.73
2022-11-27T04:45:09.583Z,22.27
2022-11-27T04:47:37.413Z,24.73
2022-11-27T04:50:06.039Z,19.60
2022-11-27T04:52:35.095Z,23.13
2022-11-27T04:55:02.829Z,24.40
2022-11-27T04:57:30.603Z,21.20
2022-11-27T04:59:58.370Z,26.00
2022-11-27T05:02:26.123Z,23.43
2022-11-27T05:04:54.126Z,21.23
2022-11-27T05:07:21.984Z,24.43
2022-11-27T05:09:51.406Z,21.83
2022-11-27T05:12:19.162Z,22.30
2022-11-27T05:14:46.886Z,25.63
2022-11-27T05:17:14.628Z,24.63
2022-11-27T05:19:42.323Z,24.43
2022-11-27T05:22:10.035Z,24.63
2022-11-27T05:24:37.966Z,28.17
2022-11-27T05:27:07.170Z,26.03
2022-11-27T05:29:34.933Z,24.73
2022-11-27T05:32:02.657Z,20.30
2022-11-27T05:34:30.398Z,27.67
2022-11-27T05:36:58.108Z,23.23
2022-11-27T05:39:26.076Z,24.73
2022-11-27T05:41:53.804Z,23.20
2022-11-27T05:44:22.854Z,21.77
2022-11-27T05:46:50.633Z,21.07
2022-11-27T05:49:19.444Z,20.43
2022-11-27T05:51:51.233Z,18.47
2022-11-27T05:54:19.858Z,20.30
2022-11-27T05:56:47.607Z,18.40
2022-11-27T05:59:15.541Z,23.53
2022-11-27T06:01:44.708Z,17.20
2022-11-27T06:04:12.483Z,18.87
2022-11-27T06:06:40.197Z,17.80
2022-11-27T06:09:12.500Z,16.60
2022-11-27T06:11:41.408Z,15.87
2022-11-27T06:14:09.570Z,18.37
2022-11-27T06:16:38.079Z,20.03
2022-11-27T06:19:08.170Z,24.70
2022-11-27T06:21:35.941Z,16.67
2022-11-27T06:24:04.100Z,16.57
2022-11-27T06:26:33.833Z,17.13
2022-11-27T06:29:02.196Z,18.53
2022-11-27T06:31:32.109Z,18.27
2022-11-27T06:34:00.574Z,17.30
2022-11-27T06:36:32.311Z,12.30
2022-11-27T06:39:00.354Z,16.23
2022-11-27T06:41:29.115Z,22.17
2022-11-27T06:43:58.867Z,21.60
2022-11-27T06:46:27.410Z,22.27
2022-11-27T06:48:55.805Z,16.77
2022-11-27T06:51:25.675Z,17.93
2022-11-27T06:53:54.988Z,17.43
2022-11-27T06:56:24.413Z,14.70
2022-11-27T06:58:53.207Z,29.20
2022-11-27T07:01:22.285Z,17.53
2022-11-27T07:03:50.079Z,11.83
2022-11-27T07:06:21.251Z,12.37
2022-11-27T07:08:49.712Z,17.07
2022-11-27T07:11:21.020Z,17.03
2022-11-27T07:13:50.240Z,15.13
2022-11-27T07:16:19.077Z,16.70
2022-11-27T07:18:48.549Z,12.33
2022-11-27T07:21:16.889Z,29.03
2022-11-27T07:23:44.657Z,12.13
2022-11-27T07:26:14.702Z,14.40
2022-11-27T07:28:44.413Z,17.77
2022-11-27T07:31:13.425Z,14.47
2022-11-27T07:33:41.480Z,16.33
2022-11-27T07:36:14.225Z,17.93
2022-11-27T07:38:42.210Z,19.47
2022-11-27T07:41:10.317Z,22.27
2022-11-27T07:43:38.324Z,21.10
2022-11-27T07:46:08.968Z,19.70
2022-11-27T07:48:37.697Z,33.47
2022-11-27T07:56:03.885Z,18.27
2022-11-27T07:58:31.657Z,20.03
2022-11-27T08:00:59.431Z,16.57
2022-11-27T08:03:28.760Z,18.83
2022-11-27T08:05:56.452Z,16.23
2022-11-27T08:08:24.174Z,21.23
2022-11-27T08:10:51.860Z,18.00
2022-11-27T08:13:19.580Z,18.17
2022-11-27T08:15:48.085Z,22.77
2022-11-27T08:18:15.813Z,19.00
2022-11-27T08:20:44.834Z,19.77
2022-11-27T08:23:12.539Z,19.07
2022-11-27T08:25:40.237Z,24.67
2022-11-27T08:28:07.955Z,21.70
2022-11-27T08:30:35.638Z,20.70
2022-11-27T08:33:03.369Z,17.50
2022-11-27T08:35:31.059Z,19.00
2022-11-27T08:38:00.359Z,19.97
2022-11-27T08:40:28.090Z,22.43
2022-11-27T08:42:55.793Z,21.83
2022-11-27T08:45:23.740Z,23.63
2022-11-27T08:47:51.450Z,23.43
2022-11-27T08:50:19.423Z,24.07
2022-11-27T08:52:47.129Z,24.87
2022-11-27T08:55:16.338Z,21.87
2022-11-27T08:57:44.120Z,22.77
2022-11-27T09:00:13.064Z,20.93
2022-11-27T09:02:40.810Z,22.97
2022-11-27T09:05:09.361Z,20.07
2022-11-27T09:07:37.111Z,21.10
2022-11-27T09:10:05.722Z,23.67
2022-11-27T09:12:38.162Z,21.03
2022-11-27T09:15:09.197Z,56.70
2022-11-27T09:17:36.910Z,21.30
2022-11-27T09:20:05.276Z,22.50
2022-11-27T09:22:33.980Z,22.20
2022-11-27T09:25:01.929Z,21.10
2022-11-27T09:27:29.683Z,23.37
2022-11-27T09:29:59.068Z,25.27
2022-11-27T09:32:26.821Z,23.43
2022-11-27T09:34:54.634Z,22.80
2022-11-27T09:37:22.475Z,19.43
2022-11-27T09:39:50.190Z,17.47
2022-11-27T09:42:32.795Z,16.90
2022-11-27T09:45:02.749Z,19.60
2022-11-27T09:47:41.290Z,19.23
2022-11-27T09:50:15.065Z,17.13
2022-11-27T09:52:46.969Z,21.07
2022-11-27T09:55:22.655Z,17.87
2022-11-27T09:57:59.597Z,16.23
2022-11-27T10:00:28.991Z,15.40
2022-11-27T10:02:56.997Z,17.20
2022-11-27T10:05:29.603Z,16.73
2022-11-27T10:08:25.116Z,14.60
2022-11-27T10:11:03.069Z,15.43
2022-11-27T10:13:47.949Z,16.93
2022-11-27T10:16:26.124Z,13.30
2022-11-27T10:18:59.111Z,12.37
2022-11-27T10:21:35.687Z,11.03
2022-11-27T10:24:14.945Z,13.33
2022-11-27T10:26:47.039Z,12.30
2022-11-27T10:29:26.402Z,13.37
2022-11-27T10:31:58.237Z,11.90
2022-11-27T10:34:35.228Z,13.67
2022-11-27T10:37:07.393Z,9.33
2022-11-27T10:39:41.114Z,11.77
2022-11-27T10:42:14.350Z,13.07
2022-11-27T10:44:47.293Z,13.03
2022-11-27T10:47:17.446Z,11.57
2022-11-27T10:49:47.848Z,11.50
2022-11-27T10:52:17.609Z,13.77
2022-11-27T10:54:50.484Z,11.30
2022-11-27T10:57:41.624Z,14.67
2022-11-27T11:00:15.115Z,13.00
2022-11-27T11:02:44.250Z,10.63
2022-11-27T11:05:37.299Z,12.30
2022-11-27T11:08:05.052Z,17.93
2022-11-27T11:10:35.945Z,12.37
2022-11-27T11:13:21.028Z,11.83
2022-11-27T11:15:56.137Z,12.70
2022-11-27T11:18:27.354Z,13.47
2022-11-27T11:20:57.599Z,10.43
2022-11-27T11:23:30.738Z,13.83
2022-11-27T11:26:03.550Z,11.43
2022-11-27T11:28:38.037Z,12.53
2022-11-27T11:31:11.697Z,11.63
2022-11-27T11:33:50.646Z,13.67
2022-11-27T11:36:18.483Z,13.80
2022-11-27T12:06:59.644Z,8.07
2022-11-27T12:09:42.690Z,11.40
2022-11-27T12:12:23.965Z,10.27
2022-11-27T12:14:56.696Z,9.90
2022-11-27T12:17:49.413Z,9.93
2022-11-27T12:20:22.573Z,8.37
2022-11-27T12:23:24.786Z,7.83
2022-11-27T12:26:04.896Z,7.00
2022-11-27T12:28:59.431Z,7.73
2022-11-27T12:31:42.712Z,7.37
2022-11-27T12:34:21.243Z,8.93
2022-11-27T12:37:11.115Z,7.87
2022-11-27T12:39:54.676Z,5.53
2022-11-27T12:42:27.290Z,6.83
2022-11-27T12:45:01.341Z,9.30
2022-11-27T12:47:38.883Z,8.23
2022-11-27T12:50:15.657Z,11.10
2022-11-27T12:52:49.334Z,11.40
2022-11-27T12:55:21.953Z,9.13
2022-11-27T12:57:52.588Z,10.27
2022-11-27T13:00:22.999Z,8.33
2022-11-27T13:03:01.478Z,10.10
2022-11-27T13:05:33.200Z,11.57
2022-11-27T13:08:05.496Z,11.30
2022-11-27T13:10:36.708Z,13.43
2022-11-27T13:13:09.634Z,11.13
2022-11-27T13:15:42.024Z,9.97
2022-11-27T13:18:18.130Z,11.27
2022-11-27T13:20:52.090Z,8.63
2022-11-27T13:23:22.284Z,9.90
2022-11-27T13:25:55.576Z,9.00
2022-11-27T13:28:27.538Z,11.43
2022-11-27T13:30:58.408Z,8.63
2022-11-27T13:33:37.972Z,10.17
2022-11-27T13:36:08.911Z,11.07
2022-11-27T13:38:42.014Z,10.63
2022-11-27T13:41:20.635Z,9.10
2022-11-27T13:43:50.317Z,10.90
2022-11-27T13:46:23.280Z,12.07
2022-11-27T13:48:54.719Z,12.30
2022-11-27T13:51:27.912Z,9.67
2022-11-27T13:54:08.707Z,8.07
2022-11-27T13:56:36.935Z,13.67
2022-11-27T13:59:14.623Z,10.73
2022-11-27T14:01:54.787Z,8.87
2022-11-27T14:04:22.591Z,10.50
2022-11-27T14:06:59.375Z,9.13
2022-11-27T14:09:42.226Z,8.73
2022-11-27T14:12:20.356Z,9.10
2022-11-27T14:15:02.593Z,11.30
2022-11-27T14:17:36.953Z,8.70
2022-11-27T14:20:19.762Z,8.67
2022-11-27T14:23:10.526Z,7.37
2022-11-27T14:25:39.133Z,9.37
2022-11-27T14:28:15.369Z,9.57
2022-11-27T14:30:47.514Z,7.50
2022-11-27T14:33:20.307Z,7.37
2022-11-27T14:35:51.922Z,7.30
2022-11-27T14:38:20.391Z,11.03
2022-11-27T14:40:50.289Z,11.20
2022-11-27T14:43:19.694Z,9.07
2022-11-27T14:45:51.137Z,15.17
2022-11-27T14:48:23.648Z,8.57
2022-11-27T14:50:52.950Z,9.37
2022-11-27T14:53:22.387Z,7.33
2022-11-27T14:55:54.944Z,7.90
2022-11-27T14:58:28.430Z,7.07
2022-11-27T15:00:59.558Z,10.40
2022-11-27T15:03:28.115Z,9.83
2022-11-27T15:05:58.808Z,7.60
2022-11-27T15:08:27.840Z,6.27
2022-11-27T15:10:59.591Z,7.33
2022-11-27T15:13:29.108Z,6.50
2022-11-27T15:16:01.488Z,14.30
2022-11-27T15:18:30.561Z,13.70
2022-11-27T15:20:59.671Z,7.50
2022-11-27T15:23:29.085Z,10.97
2022-11-27T15:26:15.930Z,8.93
2022-11-27T15:28:52.439Z,11.37
2022-11-27T15:31:26.347Z,9.73
2022-11-27T15:33:59.692Z,14.03
2022-11-27T15:36:28.495Z,11.40
2022-11-27T15:39:15.964Z,11.37
2022-11-27T15:41:53.575Z,14.93
2022-11-27T15:44:22.167Z,10.80
2022-11-27T15:46:50.543Z,15.60
2022-11-27T15:49:19.597Z,20.77
2022-11-27T15:51:47.691Z,15.67
2022-11-27T15:54:15.530Z,11.73
2022-11-27T15:56:44.122Z,11.00
2022-11-27T16:01:41.214Z,11.30
2022-11-27T16:09:05.614Z,11.60
2022-11-27T16:11:33.813Z,15.15
2022-11-27T16:16:31.163Z,11.77
2022-11-27T16:19:01.744Z,14.53
2022-11-27T16:21:30.802Z,11.97
2022-11-27T16:24:00.112Z,19.20
2022-11-27T16:26:28.736Z,14.53
2022-11-27T16:28:56.682Z,10.70
2022-11-27T16:31:25.453Z,9.13
2022-11-27T16:33:54.809Z,13.50
2022-11-27T16:36:23.568Z,12.37
2022-11-27T16:43:50.611Z,14.10
2022-11-27T16:46:20.308Z,14.00
2022-11-27T16:48:49.558Z,11.80
2022-11-27T16:51:21.616Z,12.73
